createdAt,value
2019-02-16T00:02:15.505Z,7.50
2019-02-16T00:04:42.474Z,7.63
2019-02-16T00:07:09.478Z,7.70
2019-02-16T00:09:36.460Z,7.30
2019-02-16T00:12:03.874Z,8.27
2019-02-16T00:14:30.880Z,11.83
2019-02-16T00:16:58.064Z,9.60
2019-02-16T00:19:25.045Z,9.40
2019-02-16T00:21:52.042Z,9.87
2019-02-16T00:24:19.015Z,11.33
2019-02-16T00:26:46.015Z,8.53
2019-02-16T00:29:12.992Z,10.93
2019-02-16T00:31:39.956Z,9.57
2019-02-16T00:34:06.909Z,8.63
2019-02-16T00:36:33.905Z,10.60
2019-02-16T00:39:00.866Z,10.53
2019-02-16T00:41:27.894Z,8.17
2019-02-16T00:43:54.878Z,10.70
2019-02-16T00:46:21.830Z,8.63
2019-02-16T00:48:48.801Z,7.43
2019-02-16T00:51:15.789Z,9.27
2019-02-16T00:53:42.737Z,9.40
2019-02-16T00:56:09.712Z,8.13
2019-02-16T00:58:36.712Z,8.93
2019-02-16T01:01:03.669Z,8.20
2019-02-16T01:03:30.624Z,10.37
2019-02-16T01:05:57.608Z,13.13
2019-02-16T01:08:24.568Z,9.13
2019-02-16T01:10:51.525Z,9.77
2019-02-16T01:13:18.855Z,8.10
2019-02-16T01:15:45.822Z,8.77
2019-02-16T01:18:12.813Z,10.67
2019-02-16T01:20:39.780Z,8.37
2019-02-16T01:23:06.763Z,7.87
2019-02-16T01:25:33.656Z,7.73
2019-02-16T01:28:00.627Z,9.10
2019-02-16T01:30:27.665Z,6.90
2019-02-16T01:32:54.603Z,10.27
2019-02-16T01:35:21.561Z,7.50
2019-02-16T01:37:48.506Z,8.17
2019-02-16T01:40:15.454Z,8.60
2019-02-16T01:42:42.440Z,8.73
2019-02-16T01:45:09.676Z,7.47
2019-02-16T01:47:36.636Z,7.47
2019-02-16T01:50:04.398Z,6.90
2019-02-16T01:52:31.354Z,11.80
2019-02-16T01:54:58.305Z,8.33
2019-02-16T01:57:25.280Z,8.73
2019-02-16T01:59:52.237Z,7.13
2019-02-16T02:02:19.240Z,10.20
2019-02-16T02:04:46.212Z,8.67
2019-02-16T02:07:13.160Z,8.30
2019-02-16T02:09:40.112Z,7.00
2019-02-16T02:12:07.076Z,7.03
2019-02-16T02:14:35.457Z,11.20
2019-02-16T02:20:09.077Z,8.87
2019-02-16T02:22:36.094Z,9.40
2019-02-16T02:25:03.064Z,8.40
2019-02-16T02:27:30.014Z,10.13
2019-02-16T02:29:56.976Z,8.90
2019-02-16T02:32:23.929Z,8.97
2019-02-16T02:34:50.873Z,8.07
2019-02-16T02:37:17.848Z,7.77
2019-02-16T02:39:44.891Z,9.77
2019-02-16T02:42:11.835Z,14.20
2019-02-16T02:44:38.830Z,8.50
2019-02-16T02:47:05.768Z,8.10
2019-02-16T02:49:32.718Z,8.17
2019-02-16T02:51:59.694Z,9.30
2019-02-16T02:54:26.737Z,7.53
2019-02-16T02:56:53.705Z,5.93
2019-02-16T02:59:20.705Z,7.33
2019-02-16T03:01:48.195Z,9.23
2019-02-16T03:04:14.604Z,7.07
2019-02-16T03:06:41.616Z,7.37
2019-02-16T03:09:08.568Z,7.03
2019-02-16T03:11:35.515Z,7.30
2019-02-16T03:14:02.505Z,5.90
2019-02-16T03:16:30.665Z,8.13
2019-02-16T03:18:57.620Z,8.23
2019-02-16T03:21:24.592Z,6.63
2019-02-16T03:23:51.551Z,7.83
2019-02-16T03:26:41.071Z,6.27
2019-02-16T03:29:28.851Z,6.47
2019-02-16T03:32:08.411Z,7.00
2019-02-16T03:34:41.552Z,7.40
2019-02-16T03:37:24.765Z,5.63
2019-02-16T03:39:51.737Z,6.30
2019-02-16T03:42:18.702Z,7.07
2019-02-16T03:44:45.696Z,7.40
2019-02-16T03:47:12.642Z,7.47
2019-02-16T03:49:39.620Z,8.50
2019-02-16T03:52:13.858Z,5.53
2019-02-16T03:54:33.543Z,6.60
2019-02-16T03:57:00.496Z,5.83
2019-02-16T03:59:27.473Z,6.90
2019-02-16T04:01:54.498Z,5.73
2019-02-16T04:04:21.448Z,5.77
2019-02-16T04:06:48.405Z,7.37
2019-02-16T04:09:15.342Z,6.07
2019-02-16T04:11:42.291Z,6.17
2019-02-16T04:14:09.247Z,6.57
2019-02-16T04:16:36.736Z,6.03
2019-02-16T04:19:03.676Z,5.90
2019-02-16T04:21:30.656Z,7.30
2019-02-16T04:23:57.593Z,5.63
2019-02-16T04:26:24.531Z,8.40
2019-02-16T04:28:51.508Z,6.87
2019-02-16T04:31:18.440Z,5.47
2019-02-16T04:33:45.387Z,6.23
2019-02-16T04:36:12.360Z,5.60
2019-02-16T04:38:39.335Z,5.87
2019-02-16T04:41:06.279Z,6.00
2019-02-16T04:43:33.250Z,6.40
2019-02-16T04:46:00.192Z,5.47
2019-02-16T04:48:27.585Z,8.13
2019-02-16T04:50:54.585Z,5.63
2019-02-16T04:53:21.541Z,5.50
2019-02-16T04:55:48.490Z,6.33
2019-02-16T04:58:15.454Z,7.83
2019-02-16T05:00:42.410Z,6.33
2019-02-16T05:03:09.344Z,6.00
2019-02-16T05:05:36.329Z,6.47
2019-02-16T05:08:03.312Z,6.10
2019-02-16T05:10:30.303Z,6.90
2019-02-16T05:12:57.268Z,7.20
2019-02-16T05:15:24.240Z,7.50
2019-02-16T05:17:51.633Z,8.33
2019-02-16T05:20:18.612Z,5.47
2019-02-16T05:22:45.573Z,6.40
2019-02-16T05:25:13.315Z,7.87
2019-02-16T05:27:40.317Z,5.73
2019-02-16T05:30:07.239Z,5.40
2019-02-16T05:32:34.178Z,5.70
2019-02-16T05:35:01.213Z,6.40
2019-02-16T05:37:30.356Z,5.33
2019-02-16T05:39:55.011Z,9.10
2019-02-16T05:42:21.981Z,6.60
2019-02-16T05:44:48.919Z,5.70
2019-02-16T05:47:15.860Z,5.17
2019-02-16T05:49:42.869Z,6.33
2019-02-16T05:52:09.912Z,7.20
2019-02-16T05:54:36.879Z,6.40
2019-02-16T05:57:03.849Z,7.07
2019-02-16T05:59:30.787Z,5.23
2019-02-16T06:01:57.743Z,6.73
2019-02-16T06:04:24.745Z,5.53
2019-02-16T06:06:51.692Z,6.37
2019-02-16T06:09:18.639Z,7.07
2019-02-16T06:11:45.616Z,6.23
2019-02-16T06:14:12.560Z,6.03
2019-02-16T06:16:39.552Z,7.53
2019-02-16T06:19:07.773Z,7.07
2019-02-16T06:21:34.709Z,6.87
2019-02-16T06:24:01.646Z,6.07
2019-02-16T06:26:28.608Z,5.60
2019-02-16T06:28:55.549Z,5.50
2019-02-16T06:31:22.485Z,7.07
2019-02-16T06:33:49.448Z,5.57
2019-02-16T06:36:21.887Z,5.80
2019-02-16T06:38:48.833Z,7.80
2019-02-16T06:41:15.837Z,7.53
2019-02-16T06:43:42.781Z,7.33
2019-02-16T06:46:09.746Z,5.37
2019-02-16T06:48:36.734Z,8.57
2019-02-16T06:51:03.672Z,8.77
2019-02-16T06:53:30.616Z,5.23
2019-02-16T06:56:02.487Z,5.70
2019-02-16T06:58:29.435Z,5.17
2019-02-16T07:00:56.389Z,7.37
2019-02-16T07:03:23.351Z,8.47
2019-02-16T07:05:50.276Z,9.13
2019-02-16T07:08:17.220Z,6.53
2019-02-16T07:10:44.246Z,5.33
2019-02-16T07:13:11.207Z,6.37
2019-02-16T07:15:38.126Z,6.33
2019-02-16T07:18:15.982Z,5.93
2019-02-16T07:20:43.361Z,5.50
2019-02-16T07:23:10.262Z,5.63
2019-02-16T07:25:37.303Z,5.73
2019-02-16T07:28:04.244Z,5.37
2019-02-16T07:30:31.198Z,5.43
2019-02-16T07:32:58.147Z,7.83
2019-02-16T07:35:25.100Z,8.27
2019-02-16T07:37:52.051Z,7.53
2019-02-16T07:40:19.054Z,7.97
2019-02-16T07:42:55.803Z,6.77
2019-02-16T07:45:41.528Z,6.30
2019-02-16T07:48:15.493Z,8.87
2019-02-16T07:50:46.643Z,6.33
2019-02-16T07:53:37.267Z,7.80
2019-02-16T07:56:14.225Z,7.37
2019-02-16T07:58:49.260Z,8.10
2019-02-16T08:01:26.301Z,5.80
2019-02-16T08:04:12.863Z,7.87
2019-02-16T08:06:50.973Z,6.07
2019-02-16T08:09:29.056Z,5.97
2019-02-16T08:12:07.106Z,7.43
2019-02-16T08:14:44.253Z,8.40
2019-02-16T08:17:30.820Z,8.27
2019-02-16T08:20:09.684Z,8.63
2019-02-16T08:22:44.755Z,7.37
2019-02-16T08:25:31.317Z,7.60
2019-02-16T08:28:22.770Z,7.13
2019-02-16T08:31:12.442Z,6.50
2019-02-16T08:33:46.797Z,7.10
2019-02-16T08:36:20.675Z,6.37
2019-02-16T08:38:56.544Z,9.87
2019-02-16T08:41:37.809Z,7.80
2019-02-16T08:44:15.623Z,7.93
2019-02-16T08:46:50.232Z,6.50
2019-02-16T08:49:30.442Z,7.67
2019-02-16T08:52:06.966Z,7.83
2019-02-16T08:54:55.533Z,6.20
2019-02-16T08:57:31.192Z,7.60
2019-02-16T09:00:11.563Z,6.73
2019-02-16T09:02:44.364Z,7.47
2019-02-16T09:05:20.003Z,6.50
2019-02-16T09:07:54.192Z,6.37
2019-02-16T09:10:31.510Z,11.00
2019-02-16T09:13:18.929Z,5.90
2019-02-16T09:16:08.556Z,7.37
2019-02-16T09:18:44.451Z,6.30
2019-02-16T09:21:20.237Z,6.90
2019-02-16T09:23:59.125Z,6.20
2019-02-16T09:26:33.376Z,6.93
2019-02-16T09:29:07.060Z,6.70
2019-02-16T09:31:45.799Z,8.37
2019-02-16T09:34:18.660Z,8.48
2019-02-16T09:36:51.479Z,9.23
2019-02-16T09:39:31.712Z,6.92
2019-02-16T09:42:05.484Z,6.00
2019-02-16T09:44:53.102Z,7.28
2019-02-16T09:47:39.704Z,6.67
2019-02-16T09:50:14.385Z,6.60
2019-02-16T09:52:52.428Z,7.62
2019-02-16T09:55:26.115Z,6.70
2019-02-16T09:58:17.491Z,7.25
2019-02-16T10:00:50.425Z,6.20
2019-02-16T10:03:44.259Z,5.78
2019-02-16T10:06:32.376Z,7.87
2019-02-16T10:09:07.317Z,7.70
2019-02-16T10:11:46.204Z,6.83
2019-02-16T10:14:18.792Z,7.30
2019-02-16T10:17:02.734Z,6.83
2019-02-16T10:19:37.872Z,6.90
2019-02-16T10:22:20.586Z,6.65
2019-02-16T10:24:58.116Z,7.25
2019-02-16T10:27:31.788Z,7.17
2019-02-16T10:30:04.532Z,8.08
2019-02-16T10:32:55.940Z,7.00
2019-02-16T10:35:30.131Z,7.62
2019-02-16T10:38:10.059Z,6.92
2019-02-16T10:40:52.513Z,7.83
2019-02-16T10:43:31.391Z,7.25
2019-02-16T10:46:20.842Z,6.83
2019-02-16T10:48:57.443Z,7.25
2019-02-16T10:51:49.003Z,6.95
2019-02-16T10:54:29.047Z,7.65
2019-02-16T10:57:06.770Z,7.45
2019-02-16T10:59:43.300Z,7.20
2019-02-16T11:02:31.877Z,6.67
2019-02-16T11:05:05.892Z,7.42
2019-02-16T11:07:42.002Z,7.10
2019-02-16T11:10:21.878Z,7.10
2019-02-16T11:13:12.429Z,6.58
2019-02-16T11:16:04.971Z,7.00
2019-02-16T11:18:40.229Z,6.83
2019-02-16T11:21:17.872Z,7.47
2019-02-16T11:24:07.348Z,7.65
2019-02-16T11:26:45.668Z,6.33
2019-02-16T11:29:26.156Z,7.00
2019-02-16T11:32:16.936Z,8.75
2019-02-16T11:35:03.644Z,7.40
2019-02-16T11:37:37.142Z,13.62
2019-02-16T11:40:10.564Z,7.35
2019-02-16T11:42:46.889Z,7.78
2019-02-16T11:45:40.092Z,7.58
2019-02-16T11:48:16.811Z,7.67
2019-02-16T11:50:55.248Z,6.80
2019-02-16T11:53:29.292Z,8.65
2019-02-16T11:56:06.897Z,7.50
2019-02-16T11:58:39.612Z,7.75
2019-02-16T12:01:14.920Z,7.78
2019-02-16T12:03:47.656Z,9.00
2019-02-16T12:06:25.710Z,8.90
2019-02-16T12:09:36.326Z,7.87
2019-02-16T12:12:22.936Z,8.33
2019-02-16T12:15:02.228Z,8.05
2019-02-16T12:17:53.735Z,8.75
2019-02-16T12:20:33.725Z,8.08
2019-02-16T12:23:08.331Z,9.47
2019-02-16T12:25:54.886Z,8.23
2019-02-16T12:28:37.192Z,11.50
2019-02-16T12:31:16.473Z,7.67
2019-02-16T12:33:52.980Z,7.93
2019-02-16T12:36:32.072Z,8.30
2019-02-16T12:39:05.233Z,7.80
2019-02-16T12:41:52.501Z,7.23
2019-02-16T12:44:25.925Z,8.40
2019-02-16T12:46:58.595Z,10.13
2019-02-16T12:49:39.967Z,12.23
2019-02-16T12:52:12.710Z,7.57
2019-02-16T12:54:45.547Z,6.93
2019-02-16T12:57:19.433Z,8.43
2019-02-16T12:59:53.159Z,7.27
2019-02-16T13:02:42.643Z,6.80
2019-02-16T13:05:25.567Z,8.37
2019-02-16T13:07:58.301Z,6.87
2019-02-16T13:10:44.884Z,7.67
2019-02-16T13:13:26.723Z,9.43
2019-02-16T13:16:15.325Z,8.67
2019-02-16T13:18:58.820Z,7.17
2019-02-16T13:21:37.204Z,7.83
2019-02-16T13:24:13.778Z,7.40
2019-02-16T13:27:00.341Z,8.80
2019-02-16T13:29:43.997Z,8.03
2019-02-16T13:32:34.503Z,6.90
2019-02-16T13:35:15.124Z,7.03
2019-02-16T13:37:51.314Z,7.40
2019-02-16T13:40:24.011Z,9.00
2019-02-16T13:43:07.649Z,7.40
2019-02-16T13:45:46.840Z,7.07
2019-02-16T13:48:20.563Z,6.83
2019-02-16T13:51:02.515Z,6.60
2019-02-16T13:53:37.301Z,6.40
2019-02-16T13:56:11.922Z,4.67
2019-02-16T13:58:46.675Z,5.23
2019-02-16T14:01:26.802Z,6.77
2019-02-16T14:04:21.220Z,7.27
2019-02-16T14:06:59.552Z,5.90
2019-02-16T14:09:47.187Z,4.70
2019-02-16T14:12:24.940Z,4.60
2019-02-16T14:15:02.894Z,4.53
2019-02-16T14:17:40.034Z,4.60
2019-02-16T14:20:07.634Z,6.63
2019-02-16T14:22:34.607Z,5.63
2019-02-16T14:25:01.577Z,5.23
2019-02-16T14:27:28.525Z,5.47
2019-02-16T14:29:55.765Z,6.60
2019-02-16T14:32:22.716Z,5.57
2019-02-16T14:34:49.735Z,5.50
2019-02-16T14:37:36.169Z,4.73
2019-02-16T14:40:02.896Z,4.80
2019-02-16T14:42:29.840Z,5.80
2019-02-16T14:44:56.812Z,4.47
2019-02-16T14:47:23.793Z,4.87
2019-02-16T14:49:50.780Z,3.90
2019-02-16T14:52:17.737Z,5.07
2019-02-16T14:54:44.714Z,5.00
2019-02-16T14:57:11.708Z,6.03
2019-02-16T14:59:38.687Z,4.67
2019-02-16T15:02:05.672Z,6.97
2019-02-16T15:04:32.603Z,3.90
2019-02-16T15:06:59.667Z,4.03
2019-02-16T15:09:26.688Z,4.10
2019-02-16T15:11:53.676Z,4.30
2019-02-16T15:14:20.619Z,5.37
2019-02-16T15:16:47.723Z,4.83
2019-02-16T15:19:14.700Z,6.77
2019-02-16T15:21:41.698Z,8.77
2019-02-16T15:24:08.756Z,7.37
2019-02-16T15:26:35.698Z,7.27
2019-02-16T15:29:02.995Z,6.27
2019-02-16T15:31:30.366Z,7.00
2019-02-16T15:33:57.306Z,7.20
2019-02-16T15:36:24.445Z,5.93
2019-02-16T15:38:51.208Z,7.00
2019-02-16T15:41:18.216Z,7.30
2019-02-16T15:43:45.193Z,8.20
2019-02-16T15:46:12.172Z,5.60
2019-02-16T15:48:39.140Z,6.17
2019-02-16T15:51:06.077Z,5.37
2019-02-16T15:53:33.041Z,5.77
2019-02-16T15:56:00.008Z,6.00
2019-02-16T15:58:26.953Z,5.83
2019-02-16T16:00:53.970Z,10.13
2019-02-16T16:03:20.900Z,7.90
2019-02-16T16:05:47.828Z,6.07
2019-02-16T16:08:22.178Z,6.50
2019-02-16T16:10:55.151Z,10.70
2019-02-16T16:13:32.497Z,6.33
2019-02-16T16:16:18.177Z,9.43
2019-02-16T16:18:56.874Z,10.03
2019-02-16T16:21:40.392Z,8.00
2019-02-16T16:24:18.619Z,7.50
2019-02-16T16:26:58.468Z,10.30
2019-02-16T16:29:41.800Z,8.73
2019-02-16T16:32:17.722Z,8.30
2019-02-16T16:34:49.979Z,10.13
2019-02-16T16:37:30.796Z,12.57
2019-02-16T16:40:21.216Z,10.50
2019-02-16T16:43:12.665Z,11.93
2019-02-16T16:45:56.368Z,18.80
2019-02-16T16:48:39.468Z,20.03
2019-02-16T16:51:30.836Z,17.00
2019-02-16T16:54:08.857Z,16.73
2019-02-16T16:56:42.826Z,16.10
2019-02-16T16:59:25.019Z,19.53
2019-02-16T17:02:05.836Z,27.30
2019-02-16T17:04:39.544Z,24.00
2019-02-16T17:07:15.692Z,20.20
2019-02-16T17:09:53.728Z,21.97
2019-02-16T17:12:34.659Z,21.37
2019-02-16T17:15:01.499Z,13.00
2019-02-16T17:17:43.844Z,12.13
2019-02-16T17:20:19.340Z,14.10
2019-02-16T17:22:52.872Z,15.10
2019-02-16T17:25:29.753Z,16.53
2019-02-16T17:28:04.786Z,13.43
2019-02-16T17:30:37.239Z,14.17
2019-02-16T17:33:14.577Z,14.77
2019-02-16T17:35:48.144Z,15.07
2019-02-16T17:38:22.163Z,26.83
2019-02-16T17:40:58.134Z,16.63
2019-02-16T17:43:39.607Z,14.77
2019-02-16T17:46:20.776Z,15.97
2019-02-16T17:49:12.444Z,14.10
2019-02-16T17:51:56.453Z,14.53
2019-02-16T17:54:33.245Z,15.60
2019-02-16T17:57:09.718Z,15.63
2019-02-16T17:59:41.681Z,17.97
2019-02-16T18:02:28.252Z,15.53
2019-02-16T18:05:01.676Z,15.03
2019-02-16T18:07:43.365Z,14.67
2019-02-16T18:10:31.997Z,14.67
2019-02-16T18:13:20.375Z,17.43
2019-02-16T18:15:55.653Z,13.70
2019-02-16T18:18:33.932Z,16.43
2019-02-16T18:21:07.705Z,14.50
2019-02-16T18:23:39.596Z,21.27
2019-02-16T18:26:28.197Z,17.50
2019-02-16T18:29:14.759Z,16.43
2019-02-16T18:32:04.587Z,20.07
2019-02-16T18:34:37.947Z,19.33
2019-02-16T18:37:13.429Z,18.30
2019-02-16T18:39:51.149Z,26.70
2019-02-16T18:42:30.549Z,20.17
2019-02-16T18:45:05.573Z,19.40
2019-02-16T18:47:43.604Z,13.67
2019-02-16T18:50:25.578Z,10.43
2019-02-16T18:53:03.199Z,13.77
2019-02-16T18:55:35.968Z,15.27
2019-02-16T18:58:15.742Z,13.30
2019-02-16T19:00:49.323Z,13.40
2019-02-16T19:03:29.022Z,11.90
2019-02-16T19:06:07.277Z,13.90
2019-02-16T19:08:47.595Z,11.83
2019-02-16T19:11:27.597Z,14.23
2019-02-16T19:14:11.141Z,12.00
2019-02-16T19:16:56.806Z,16.70
2019-02-16T19:19:34.429Z,13.07
2019-02-16T19:22:17.044Z,11.73
2019-02-16T19:24:49.791Z,12.37
2019-02-16T19:27:27.108Z,12.57
2019-02-16T19:29:59.739Z,13.07
2019-02-16T19:32:41.584Z,11.73
2019-02-16T19:35:21.682Z,14.63
2019-02-16T19:37:54.390Z,12.33
2019-02-16T19:40:41.787Z,16.00
2019-02-16T19:43:21.047Z,14.37
2019-02-16T19:46:12.508Z,11.13
2019-02-16T19:49:00.147Z,10.23
2019-02-16T19:51:52.672Z,14.93
2019-02-16T19:54:25.442Z,13.23
2019-02-16T19:56:58.016Z,15.43
2019-02-16T19:59:32.573Z,12.27
2019-02-16T20:02:05.299Z,12.27
2019-02-16T20:04:52.894Z,13.77
2019-02-16T20:07:33.073Z,16.23
2019-02-16T20:10:21.572Z,17.43
2019-02-16T20:12:54.243Z,15.83
2019-02-16T20:15:41.506Z,16.27
2019-02-16T20:18:19.321Z,14.97
2019-02-16T20:20:53.415Z,16.53
2019-02-16T20:23:26.068Z,19.70
2019-02-16T20:26:14.613Z,17.57
2019-02-16T20:29:01.192Z,20.00
2019-02-16T20:31:39.485Z,14.80
2019-02-16T20:34:12.266Z,18.13
2019-02-16T20:36:53.248Z,11.57
2019-02-16T20:39:29.017Z,12.63
2019-02-16T20:42:06.085Z,9.73
2019-02-16T20:44:41.342Z,10.17
2019-02-16T20:47:23.012Z,10.50
2019-02-16T20:50:10.585Z,12.47
2019-02-16T20:52:46.709Z,13.57
2019-02-16T20:55:19.426Z,13.03
2019-02-16T20:57:54.831Z,10.03
2019-02-16T21:00:31.152Z,13.83
2019-02-16T21:03:19.597Z,10.77
2019-02-16T21:05:59.025Z,10.87
2019-02-16T21:08:47.524Z,12.00
2019-02-16T21:11:34.383Z,10.87
2019-02-16T21:14:11.347Z,12.17
2019-02-16T21:17:01.961Z,11.73
2019-02-16T21:19:46.343Z,12.43
2019-02-16T21:22:32.921Z,10.67
2019-02-16T21:25:08.867Z,13.10
2019-02-16T21:27:46.398Z,10.90
2019-02-16T21:30:25.907Z,10.37
2019-02-16T21:33:09.452Z,13.60
2019-02-16T21:35:56.854Z,12.23
2019-02-16T21:38:35.468Z,11.00
2019-02-16T21:41:11.492Z,10.57
2019-02-16T21:43:59.026Z,11.10
2019-02-16T21:46:34.480Z,12.20
2019-02-16T21:49:12.763Z,12.20
2019-02-16T21:51:47.378Z,10.27
2019-02-16T21:54:36.915Z,11.73
2019-02-16T21:57:24.309Z,10.17
2019-02-16T22:00:10.884Z,11.53
2019-02-16T22:02:49.913Z,13.73
2019-02-16T22:05:23.346Z,12.97
2019-02-16T22:08:11.755Z,12.30
2019-02-16T22:10:54.064Z,10.47
2019-02-16T22:13:21.033Z,13.93
2019-02-16T22:15:47.999Z,11.83
2019-02-16T22:18:14.960Z,11.67
2019-02-16T22:20:41.905Z,10.33
2019-02-16T22:23:08.852Z,13.00
2019-02-16T22:25:35.820Z,10.37
2019-02-16T22:28:02.767Z,10.07
2019-02-16T22:30:29.734Z,10.53
2019-02-16T22:32:56.689Z,14.53
2019-02-16T22:35:23.655Z,13.10
2019-02-16T22:37:50.599Z,10.97
2019-02-16T22:40:19.283Z,11.73
2019-02-16T22:42:46.221Z,15.23
2019-02-16T22:45:13.192Z,13.13
2019-02-16T22:47:40.144Z,18.27
2019-02-16T22:50:08.757Z,13.00
2019-02-16T22:52:35.705Z,12.50
2019-02-16T22:55:02.714Z,14.30
2019-02-16T22:57:29.649Z,15.27
2019-02-16T22:59:56.562Z,13.17
2019-02-16T23:02:23.523Z,13.97
2019-02-16T23:04:50.480Z,15.33
2019-02-16T23:07:17.416Z,14.90
2019-02-16T23:09:44.376Z,12.90
2019-02-16T23:12:11.307Z,14.70
2019-02-16T23:14:38.240Z,13.30
2019-02-16T23:17:05.195Z,12.70
2019-02-16T23:19:32.152Z,17.37
2019-02-16T23:21:59.093Z,15.17
2019-02-16T23:24:26.068Z,17.77
2019-02-16T23:26:53.019Z,16.03
2019-02-16T23:29:19.952Z,13.97
2019-02-16T23:31:46.936Z,15.67
2019-02-16T23:34:13.922Z,18.33
2019-02-16T23:36:40.988Z,17.57
2019-02-16T23:39:07.951Z,15.47
2019-02-16T23:41:35.061Z,15.83
2019-02-16T23:44:02.030Z,19.00
2019-02-16T23:46:28.985Z,16.67
2019-02-16T23:48:55.962Z,15.67
2019-02-16T23:51:22.899Z,18.83
2019-02-16T23:53:49.873Z,16.00
2019-02-16T23:56:16.808Z,18.97
2019-02-16T23:58:49.318Z,15.30
